Latest Coastal Weather Observations for Redcliffe

IDQ60701

Issued at 12:12 am EST Friday 23 June 2017 (issued every 10 minutes, with the page automatically refreshed every 10 minutes)

About coastal observations | Map of coastal stations | Coastal observations for QLD | Marine services | Other Formats
Station Details ID: 040958 Name: REDCLIFFE Lat: -27.22 Lon: 153.09 Height: 12.6 m
Data from the previous 72 hours. | See also: Recent months at Redcliffe
Date/Time
EST
Temp
°C
Wind Pressure Rain since
9am
mm
Weather Cloud Vis
km
Sea
Height
m
Swell
Dir  Spd
kts
Gust
kts
hPa Trend Height
m
Period
s
Dir
23/12:00am 13.0 WSW 7 8 1023.4 - 0.0 - - - - - - -
 
Date/Time
EST
Temp
°C
Wind Pressure Rain since
9am
mm
Weather Cloud Vis
km
Sea
Height
m
Swell
Dir  Spd
kts
Gust
kts
hPa Trend Height
m
Period
s
Dir
22/11:30pm 12.9 WSW 7 8 1023.4 - 0.0 - - - - - - -
22/11:00pm 13.1 WSW 6 8 1023.7 - 0.0 - - - - - - -
22/10:30pm 13.5 WSW 7 8 1023.8 - 0.0 - - - - - - -
22/10:00pm 13.7 WSW 7 8 1023.9 - 0.0 - - - - - - -
22/09:30pm 14.1 WSW 7 8 1023.9 - 0.0 - - - - - - -
22/09:00pm 14.3 WSW 5 6 1023.9 - 0.0 - - - - - - -
22/08:30pm 14.9 SW 5 6 1023.9 - 0.0 - - - - - - -
22/08:00pm 15.8 SW 6 7 1024.0 - 0.0 - - - - - - -
22/07:30pm 16.5 SSE 7 9 1024.0 - 0.0 - - - - - - -
22/07:00pm 17.0 SE 9 11 1023.7 - 0.0 - - - - - - -
22/06:30pm 17.9 SSE 10 12 1023.6 - 0.0 - - - - - - -
22/06:00pm 18.1 SSE 7 9 1023.3 - 0.0 - - - - - - -
22/05:30pm 18.4 SSE 10 11 1023.0 - 0.0 - - - - - - -
22/05:00pm 19.1 SSE 12 14 1022.9 - 0.0 - - - - - - -
22/04:30pm 19.4 SE 11 14 1022.8 - 0.0 - - - - - - -
22/04:00pm 19.7 SE 12 14 1022.8 - 0.0 - - - - - - -
22/03:30pm 19.6 SE 13 15 1022.6 - 0.0 - - - - - - -
22/03:00pm 20.2 SE 13 15 1022.5 - 0.0 - - - - - - -
22/02:30pm 20.4 SE 13 15 1022.6 - 0.0 - - - - - - -
22/02:00pm 20.3 SE 12 14 1022.7 - 0.0 - - - - - - -
22/01:30pm 20.4 SE 10 13 1022.8 - 0.0 - - - - - - -
22/01:00pm 20.2 SE 9 11 1023.2 - 0.0 - - - - - - -
22/12:30pm 20.8 SSE 10 11 1023.6 - 0.0 - - - - - - -
22/12:00pm 21.3 S 8 9 1024.0 - 0.0 - - - - - - -
22/11:30am 20.9 S 8 11 1024.5 - 0.0 - - - - - - -
22/11:00am 20.6 S 10 12 1024.9 - 0.0 - - - - - - -
22/10:30am 20.0 SSW 9 12 1025.3 - 0.0 - - - - - - -
22/10:00am 19.4 S 11 15 1025.5 - 0.0 - - - - - - -
22/09:30am 19.2 SSW 10 15 1025.6 - 0.0 - - - - - - -
22/09:00am 18.2 SW 11 15 1025.6 - 0.0 - - - - - - -
22/08:30am 17.0 SW 9 13 1025.4 - 0.0 - - - - - - -
22/08:00am 15.7 SW 8 12 1025.0 - 0.0 - - - - - - -
22/07:30am 14.5 SW 7 11 1024.9 - 0.0 - - - - - - -
22/07:00am 13.6 SW 8 11 1024.6 - 0.0 - - - - - - -
22/06:30am 13.2 SW 8 10 1024.3 - 0.0 - - - - - - -
22/06:00am 13.4 WSW 7 10 1023.9 - 0.0 - - - - - - -
22/05:30am 13.5 WSW 6 8 1023.7 - 0.0 - - - - - - -
22/05:00am 13.8 SW 7 10 1023.4 - 0.0 - - - - - - -
22/04:30am 14.1 SW 7 9 1023.1 - 0.0 - - - - - - -
22/04:00am 13.9 SW 6 8 1023.0 - 0.0 - - - - - - -
22/03:30am 14.1 SW 5 7 1023.1 - 0.0 - - - - - - -
22/03:00am 14.2 SW 7 10 1023.1 - 0.0 - - - - - - -
22/02:30am 14.3 SW 7 9 1023.0 - 0.0 - - - - - - -
22/02:00am 14.9 SW 7 10 1023.1 - 0.0 - - - - - - -
22/01:30am 15.4 SW 7 9 1023.3 - 0.0 - - - - - - -
22/01:00am 16.1 SSW 7 11 1023.4 - 0.0 - - - - - - -
22/12:30am 16.5 SSW 8 11 1023.6 - 0.0 - - - - - - -
22/12:00am 16.3 SSW 9 13 1023.7 - 0.0 - - - - - - -
 
Date/Time
EST
Temp
°C
Wind Pressure Rain since
9am
mm
Weather Cloud Vis
km
Sea
Height
m
Swell
Dir  Spd
kts
Gust
kts
hPa Trend Height
m
Period
s
Dir
21/11:30pm 15.9 SSW 7 10 1023.7 - 0.0 - - - - - - -
21/11:00pm 15.8 SSW 7 11 1023.9 - 0.0 - - - - - - -
21/10:30pm 15.7 SSW 9 11 1023.9 - 0.0 - - - - - - -
21/10:00pm 16.2 SSW 8 10 1024.4 - 0.0 - - - - - - -
21/09:30pm 16.5 WSW 7 8 1024.2 - 0.0 - - - - - - -
21/09:00pm 16.5 SW 7 8 1024.0 - 0.0 - - - - - - -
21/08:30pm 16.8 WSW 6 8 1023.6 - 0.0 - - - - - - -
21/08:00pm 17.8 SW 7 8 1023.6 - 0.0 - - - - - - -
21/07:30pm 18.5 SSW 8 12 1023.4 - 0.0 - - - - - - -
21/07:00pm 18.5 S 7 9 1023.1 - 0.0 - - - - - - -
21/06:30pm 18.4 SSE 8 9 1022.8 - 0.0 - - - - - - -
21/06:00pm 18.5 SE 9 11 1022.5 - 0.0 - - - - - - -
21/05:30pm 18.6 SE 8 9 1022.3 - 0.0 - - - - - - -
21/05:00pm 19.3 ESE 4 6 1021.9 - 0.0 - - - - - - -
21/04:30pm 19.4 E 4 5 1021.6 - 0.0 - - - - - - -
21/04:00pm 19.7 E 4 5 1021.5 - 0.0 - - - - - - -
21/03:30pm 20.6 E 5 5 1021.5 - 0.0 - - - - - - -
21/03:00pm 20.0 ESE 5 5 1021.5 - 0.0 - - - - - - -
21/02:30pm 21.1 ESE 5 6 1021.3 - 0.0 - - - - - - -
21/02:00pm 20.8 SE 7 9 1021.3 - 0.0 - - - - - - -
21/01:30pm 21.5 SSE 7 8 1021.2 - 0.0 - - - - - - -
21/01:00pm 21.6 S 9 11 1021.5 - 0.0 - - - - - - -
21/12:30pm 21.5 S 9 12 1021.9 - 0.0 - - - - - - -
21/12:00pm 21.0 S 8 11 1022.2 - 0.0 - - - - - - -
21/11:30am 20.8 SSW 8 11 1022.7 - 0.0 - - - - - - -
21/11:00am 20.2 SSW 8 13 1022.8 - 0.0 - - - - - - -
21/10:30am 20.0 SSW 8 12 1023.2 - 0.0 - - - - - - -
21/10:00am 19.3 SW 10 14 1023.6 - 0.0 - - - - - - -
21/09:30am 18.9 SSW 10 14 1023.3 - 0.0 - - - - - - -
21/09:00am 17.6 SW 9 12 1023.3 - 0.0 - - - - - - -
21/08:30am 16.5 SW 9 11 1023.0 - 0.0 - - - - - - -
21/08:00am 15.0 SW 9 12 1022.8 - 0.0 - - - - - - -
21/07:30am 13.8 WSW 7 9 1022.4 - 0.0 - - - - - - -
21/07:00am 12.8 WSW 7 9 1022.1 - 0.0 - - - - - - -
21/06:30am 12.9 SW 7 9 1021.9 - 0.0 - - - - - - -
21/06:00am 13.4 SW 7 9 1021.7 - 0.0 - - - - - - -
21/05:30am 13.5 SW 7 9 1021.4 - 0.0 - - - - - - -
21/05:00am 13.4 SW 7 8 1021.1 - 0.0 - - - - - - -
21/04:30am 13.7 SW 7 9 1021.0 - 0.0 - - - - - - -
21/04:00am 13.6 WSW 7 9 1021.1 - 0.0 - - - - - - -
21/03:30am 14.1 SW 8 10 1021.2 - 0.0 - - - - - - -
21/03:00am 14.6 SSW 9 14 1021.4 - 0.0 - - - - - - -
21/02:30am 14.0 SSW 9 12 1021.3 - 0.0 - - - - - - -
21/02:00am 14.5 SSW 8 10 1021.6 - 0.0 - - - - - - -
21/01:30am 15.2 SW 7 9 1021.8 - 0.0 - - - - - - -
21/01:00am 15.8 SW 8 12 1022.0 - 0.0 - - - - - - -
21/12:30am 16.1 SSW 11 15 1021.8 - 0.0 - - - - - - -
21/12:00am 16.9 S 11 15 1021.9 - 0.0 - - - - - - -
 
Date/Time
EST
Temp
°C
Wind Pressure Rain since
9am
mm
Weather Cloud Vis
km
Sea
Height
m
Swell
Dir  Spd
kts
Gust
kts
hPa Trend Height
m
Period
s
Dir
20/11:30pm 16.6 SSW 9 14 1021.9 - 0.0 - - - - - - -
20/11:00pm 16.9 SSW 9 14 1022.0 - 0.0 - - - - - - -
20/10:30pm 17.1 SSW 9 14 1022.2 - 0.0 - - - - - - -
20/10:00pm 17.2 SSW 10 16 1022.4 - 0.0 - - - - - - -
20/09:30pm 17.0 SSW 9 13 1022.6 - 0.0 - - - - - - -
20/09:00pm 16.9 SSW 7 11 1022.6 - 0.0 - - - - - - -
20/08:30pm 17.2 SW 9 11 1022.5 - 0.0 - - - - - - -
20/08:00pm 17.8 SSW 8 11 1022.6 - 0.0 - - - - - - -
20/07:30pm 17.9 S 7 10 1022.5 - 0.0 - - - - - - -
20/07:00pm 17.9 SSW 9 15 1022.1 - 0.0 - - - - - - -
20/06:30pm 17.3 S 7 10 1021.8 - 0.0 - - - - - - -
20/06:00pm 17.1 S 11 16 1021.8 - 0.0 - - - - - - -
20/05:30pm 19.1 S 11 19 1021.3 - 0.0 - - - - - - -
20/05:00pm 19.3 SSW 8 10 1021.1 - 0.0 - - - - - - -
20/04:30pm 19.5 SSW 8 14 1021.0 - 0.0 - - - - - - -
20/04:00pm 19.5 SSW 9 13 1020.8 - 0.0 - - - - - - -
20/03:30pm 19.9 S 14 20 1020.6 - 0.0 - - - - - - -
20/03:00pm 20.3 S 12 16 1020.3 - 0.0 - - - - - - -
20/02:30pm 21.1 SSW 12 17 1020.3 - 0.0 - - - - - - -
20/02:00pm 20.9 SSW 12 17 1020.3 - 0.0 - - - - - - -
20/01:30pm 21.2 SSW 11 16 1020.5 - 0.0 - - - - - - -
20/01:00pm 20.9 SSW 11 16 1020.7 - 0.0 - - - - - - -
20/12:30pm 20.1 S 15 20 1021.2 - 0.0 - - - - - - -
20/12:00pm 20.7 SSW 11 16 1021.3 - 0.0 - - - - - - -
20/11:30am 20.3 S 15 21 1021.9 - 0.0 - - - - - - -
20/11:00am 20.7 SSW 11 16 1022.0 - 0.0 - - - - - - -
20/10:30am 20.2 SSW 12 19 1022.1 - 0.0 - - - - - - -
20/10:00am 19.3 SSW 14 18 1022.4 - 0.0 - - - - - - -
20/09:30am 19.3 SSW 11 18 1022.3 - 0.0 - - - - - - -
20/09:00am 18.7 SW 11 16 1022.1 - 0.0 - - - - - - -
20/08:30am 17.8 SW 10 14 1022.0 - 0.0 - - - - - - -
20/08:00am 17.1 SW 10 15 1021.8 - 0.0 - - - - - - -
20/07:30am 16.6 SSW 9 14 1021.6 - 0.0 - - - - - - -
20/07:00am 15.8 SSW 9 14 1021.4 - 0.0 - - - - - - -
20/06:30am 15.7 SW 10 14 1021.1 - 0.0 - - - - - - -
20/06:00am 15.6 SSW 9 14 1021.0 - 0.0 - - - - - - -
20/05:30am 15.8 SSW 10 14 1020.6 - 0.0 - - - - - - -
20/05:00am 15.7 SSW 9 11 1020.5 - 0.0 - - - - - - -
20/04:30am 15.8 SW 9 13 1020.5 - 0.0 - - - - - - -
20/04:00am 15.7 SW 9 13 1020.4 - 0.0 - - - - - - -
20/03:30am 15.7 SW 9 14 1020.7 - 0.0 - - - - - - -
20/03:00am 15.9 SW 9 13 1020.9 - 0.0 - - - - - - -
20/02:30am 16.3 SW 9 13 1020.9 - 0.0 - - - - - - -
20/02:00am 16.4 SSW 9 13 1021.2 - 0.0 - - - - - - -
20/01:30am 16.6 SSW 9 11 1021.3 - 0.0 - - - - - - -
20/01:00am 17.1 SSW 9 15 1021.5 - 0.0 - - - - - - -
20/12:30am 17.2 SW 9 12 1021.6 - 0.0 - - - - - - -

Other Formats:

Comma delimited format used in spreadsheet applications
http://www.bom.gov.au/fwo/IDQ60701/IDQ60701.95591.axf

JavaScript Object Notation format (JSON) in row-major order
http://www.bom.gov.au/fwo/IDQ60701/IDQ60701.95591.json